Aérodrome :
LOGIN :

S'inscrire | Disclaimer

   EN    FR    IT 

 










Légende :    VFR   VFR Marginal   IFR   IFR Intensif   IFR Très Intensif
Visi : 
Plafond : 
>= 8 km
>= 3000ft
5 à 8 km
1000 à 3000 ft
1500m à 5 km
500 à 1000 ft
800 à 1500m
200 à 500 ft
< 800m
< 200 ft
Symboles :   Orages  Brouillard  Fortes neiges  Fortes précipitations  Vent > 20 kt
SIGMETs :   Divers  Orages  Givrage  Turbulence  Onde Orograph.  Cendres Volcan.






- Altitude de l'aérodrome : 3 ft
- Code IATA : LWR


EHLW - Leuuwarden Air Base

DERNIER METAR :
  • 221025Z AUTO 01012KT 320V040 9999 FEW026 SCT032 OVC040 17/10 Q1018 BLU NOSIG

METARs EXPIRÉS :
  • 220955Z AUTO 36011KT 320V030 9999 FEW026 SCT029 BKN046 15/09 Q1018 BLU NOSIG
  • 220925Z AUTO 01011KT 310V040 9999 BKN042 BKN250 15/09 Q1018 BLU NOSIG
  • 220904Z AUTO 01010KT 320V030 9999 FEW023 SCT027 BKN031 15/09 Q1018 BLU NOSIG
  • 220856Z AUTO 01011KT 330V030 9999 SCT023 SCT030 BKN038 16/10 Q1018 WHT NOSIG
  • 220833Z AUTO 36011KT 310V040 9999 FEW021 SCT026 BKN030 15/10 Q1017 BLU NOSIG
  • 220825Z AUTO 01011KT 330V040 9999 BKN022 BKN028 BKN033 16/10 Q1017 WHT NOSIG
  • 220755Z AUTO 36010KT 9999 FEW023 OVC040 15/10 Q1017 BLU NOSIG

TAF TAF EHLW
Valide du 22 à 09h jusqu'au 22 à 21h UTC


220829Z 2209/2221 36011KT 9999 SCT025



MET'MAP, la Météo Aéronautique d'un coup d'oeil ! - Copyright ORBIFLY Décembre 2007 - Disclaimer

ORBIFLY MET'MAP TEAM :

Programmation & Développement : Alexandra Zaïnal
Sur une idée originale de : Baudouin d'Aumeries
Assistance à la programmation : Marc-Olivier Méhu
Soutien technique & logistique : Manuel Goepfert

Contact : metmap@orbifly.com




SOURCES & CREDITS :

   NOAA